createdAt,value
2022-12-08T00:00:17.545Z,99674.72
2022-12-08T00:00:50.001Z,99682.63
2022-12-08T00:01:24.610Z,99673.63
2022-12-08T00:01:56.579Z,99674.56
2022-12-08T00:02:28.662Z,99675.47
2022-12-08T00:03:00.844Z,99673.28
2022-12-08T00:03:33.803Z,99673.13
2022-12-08T00:04:06.556Z,99683.69
2022-12-08T00:04:58.399Z,99682.16
2022-12-08T00:05:48.803Z,99682.41
2022-12-08T00:06:42.390Z,99680.22
2022-12-08T00:07:32.845Z,99682.47
2022-12-08T00:08:23.863Z,99673.19
2022-12-08T00:09:14.542Z,99675.97
2022-12-08T00:09:46.528Z,99678.59
2022-12-08T00:10:47.217Z,99679.03
2022-12-08T00:11:16.067Z,99678.03
2022-12-08T00:12:11.118Z,99675.19
2022-12-08T00:12:42.965Z,99679.75
2022-12-08T00:13:14.822Z,99680.44
2022-12-08T00:13:46.980Z,99678.66
2022-12-08T00:14:19.597Z,99675.13
2022-12-08T00:14:51.465Z,99675.88
2022-12-08T00:15:23.313Z,99674.03
2022-12-08T00:16:00.693Z,99675.47
2022-12-08T00:16:32.582Z,99675.03
2022-12-08T00:17:06.903Z,99677.38
2022-12-08T00:17:38.838Z,99675.91
2022-12-08T00:18:10.641Z,99680.66
2022-12-08T00:18:42.462Z,99669.41
2022-12-08T00:19:14.292Z,99670.25
2022-12-08T00:19:46.221Z,99675.09
2022-12-08T00:20:18.134Z,99679.75
2022-12-08T00:20:58.152Z,99679.44
2022-12-08T00:21:30.009Z,99674.53
2022-12-08T00:22:03.197Z,99677.56
2022-12-08T00:22:35.343Z,99681.16
2022-12-08T00:23:07.333Z,99674.25
2022-12-08T00:23:39.231Z,99680.16
2022-12-08T00:24:11.274Z,99666.25
2022-12-08T00:24:47.638Z,99672.81
2022-12-08T00:25:19.539Z,99675.19
2022-12-08T00:25:51.416Z,99665.41
2022-12-08T00:26:23.754Z,99674.75
2022-12-08T00:26:55.619Z,99666.63
2022-12-08T00:27:28.229Z,99670.78
2022-12-08T00:28:00.354Z,99670.78
2022-12-08T00:28:33.475Z,99674.53
2022-12-08T00:29:06.108Z,99675.13
2022-12-08T00:29:38.780Z,99679.47
2022-12-08T00:30:11.118Z,99680.31
2022-12-08T00:30:43.617Z,99675.84
2022-12-08T00:31:15.699Z,99674.41
2022-12-08T00:31:47.727Z,99679.25
2022-12-08T00:32:19.624Z,99676.16
2022-12-08T00:32:51.516Z,99672.63
2022-12-08T00:33:23.713Z,99674.09
2022-12-08T00:33:55.745Z,99673.16
2022-12-08T00:34:27.583Z,99675.84
2022-12-08T00:34:59.389Z,99676.09
2022-12-08T00:35:31.199Z,99681.63
2022-12-08T00:36:10.651Z,99679.13
2022-12-08T00:36:43.436Z,99681.91
2022-12-08T00:37:15.267Z,99684.72
2022-12-08T00:37:47.118Z,99683.94
2022-12-08T00:38:18.966Z,99683.72
2022-12-08T00:38:51.085Z,99685.06
2022-12-08T00:39:23.063Z,99685.16
2022-12-08T00:39:54.926Z,99683.81
2022-12-08T00:40:26.834Z,99693.97
2022-12-08T00:40:58.813Z,99692.47
2022-12-08T00:41:49.185Z,99685.38
2022-12-08T00:42:21.319Z,99693.44
2022-12-08T00:42:53.288Z,99689.91
2022-12-08T00:43:25.250Z,99690.88
2022-12-08T00:43:57.457Z,99691.25
2022-12-08T00:44:29.475Z,99693.59
2022-12-08T00:45:01.413Z,99695.78
2022-12-08T00:45:33.346Z,99698.47
2022-12-08T00:46:05.435Z,99698.00
2022-12-08T00:46:37.323Z,99693.34
2022-12-08T00:47:09.382Z,99686.06
2022-12-08T00:47:41.192Z,99690.72
2022-12-08T00:48:12.997Z,99703.31
2022-12-08T00:48:44.839Z,99696.94
2022-12-08T00:49:17.945Z,99682.47
2022-12-08T00:49:49.828Z,99687.19
2022-12-08T00:50:21.700Z,99694.47
2022-12-08T00:50:53.606Z,99698.50
2022-12-08T00:51:25.437Z,99695.53
2022-12-08T00:51:57.328Z,99698.50
2022-12-08T00:52:29.270Z,99701.63
2022-12-08T00:53:01.086Z,99697.25
2022-12-08T00:53:32.982Z,99692.00
2022-12-08T00:54:06.198Z,99690.69
2022-12-08T00:54:38.574Z,99701.69
2022-12-08T00:55:10.444Z,99696.81
2022-12-08T00:55:43.519Z,99691.25
2022-12-08T00:56:15.333Z,99696.31
2022-12-08T00:56:47.283Z,99691.19
2022-12-08T00:57:19.120Z,99697.63
2022-12-08T00:57:51.058Z,99698.66
2022-12-08T00:58:22.899Z,99695.97
2022-12-08T00:58:55.000Z,99692.69
2022-12-08T00:59:26.921Z,99693.91
2022-12-08T00:59:59.108Z,99687.84
2022-12-08T01:00:30.938Z,99688.34
2022-12-08T01:01:09.554Z,99694.28
2022-12-08T01:01:44.006Z,99702.28
2022-12-08T01:02:15.962Z,99687.53
2022-12-08T01:02:47.845Z,99695.91
2022-12-08T01:03:19.904Z,99692.75
2022-12-08T01:03:51.830Z,99692.16
2022-12-08T01:04:23.708Z,99689.59
2022-12-08T01:04:55.599Z,99689.91
2022-12-08T01:05:27.718Z,99691.62
2022-12-08T01:06:04.225Z,99680.37
2022-12-08T01:06:36.276Z,99679.44
2022-12-08T01:07:08.701Z,99680.56
2022-12-08T01:07:40.781Z,99684.59
2022-12-08T01:08:12.754Z,99681.44
2022-12-08T01:08:45.187Z,99686.53
2022-12-08T01:09:18.303Z,99683.84
2022-12-08T01:09:50.174Z,99692.47
2022-12-08T01:10:21.969Z,99686.50
2022-12-08T01:10:54.134Z,99687.47
2022-12-08T01:11:26.015Z,99683.09
2022-12-08T01:11:57.850Z,99684.03
2022-12-08T01:12:30.534Z,99687.84
2022-12-08T01:13:02.473Z,99682.00
2022-12-08T01:13:34.878Z,99691.97
2022-12-08T01:14:06.958Z,99686.94
2022-12-08T01:14:38.753Z,99685.09
2022-12-08T01:15:10.735Z,99684.00
2022-12-08T01:15:42.522Z,99687.25
2022-12-08T01:16:28.632Z,99680.81
2022-12-08T01:17:00.572Z,99683.34
2022-12-08T01:17:32.552Z,99681.41
2022-12-08T01:18:04.466Z,99682.38
2022-12-08T01:18:36.934Z,99687.09
2022-12-08T01:19:11.086Z,99689.44
2022-12-08T01:19:43.250Z,99690.06
2022-12-08T01:20:15.127Z,99692.09
2022-12-08T01:20:47.059Z,99691.53
2022-12-08T01:21:19.491Z,99697.22
2022-12-08T01:21:51.359Z,99690.91
2022-12-08T01:22:23.222Z,99689.28
2022-12-08T01:22:55.038Z,99694.56
2022-12-08T01:23:27.975Z,99695.91
2022-12-08T01:24:00.650Z,99695.91
2022-12-08T01:24:32.531Z,99695.41
2022-12-08T01:25:04.702Z,99697.44
2022-12-08T01:25:36.578Z,99696.91
2022-12-08T01:26:10.574Z,99693.72
2022-12-08T01:26:43.421Z,99697.59
2022-12-08T01:27:16.261Z,99703.59
2022-12-08T01:27:48.445Z,99701.06
2022-12-08T01:28:20.464Z,99703.75
2022-12-08T01:28:52.457Z,99702.66
2022-12-08T01:29:24.350Z,99693.72
2022-12-08T01:29:56.323Z,99705.97
2022-12-08T01:30:28.275Z,99697.28
2022-12-08T01:31:01.453Z,99698.00
2022-12-08T01:31:33.333Z,99698.69
2022-12-08T01:32:05.621Z,99693.56
2022-12-08T01:32:37.753Z,99694.19
2022-12-08T01:33:09.620Z,99693.91
2022-12-08T01:33:41.621Z,99689.53
2022-12-08T01:34:13.501Z,99686.69
2022-12-08T01:34:45.337Z,99686.41
2022-12-08T01:35:17.359Z,99690.84
2022-12-08T01:35:49.492Z,99686.69
2022-12-08T01:36:29.752Z,99684.09
2022-12-08T01:37:01.621Z,99680.81
2022-12-08T01:37:33.749Z,99683.56
2022-12-08T01:38:05.661Z,99677.03
2022-12-08T01:38:37.612Z,99680.94
2022-12-08T01:39:16.633Z,99685.91
2022-12-08T01:39:48.530Z,99677.56
2022-12-08T01:40:20.444Z,99677.06
2022-12-08T01:40:52.258Z,99673.03
2022-12-08T01:41:26.998Z,99668.25
2022-12-08T01:41:58.904Z,99667.72
2022-12-08T01:42:32.421Z,99669.28
2022-12-08T01:43:04.569Z,99673.19
2022-12-08T01:43:58.041Z,99674.50
2022-12-08T01:44:29.806Z,99671.19
2022-12-08T01:45:05.319Z,99669.12
2022-12-08T01:45:37.367Z,99676.81
2022-12-08T01:46:09.305Z,99670.00
2022-12-08T01:46:44.013Z,99670.88
2022-12-08T01:47:15.893Z,99666.00
2022-12-08T01:47:51.950Z,99669.59
2022-12-08T01:48:27.203Z,99667.81
2022-12-08T01:49:05.311Z,99665.53
2022-12-08T01:49:37.539Z,99664.53
2022-12-08T01:50:13.020Z,99665.50
2022-12-08T01:50:46.780Z,99671.94
2022-12-08T01:51:19.669Z,99667.06
2022-12-08T01:51:51.496Z,99669.28
2022-12-08T01:52:46.627Z,99667.09
2022-12-08T01:53:32.761Z,99663.56
2022-12-08T01:54:07.107Z,99660.63
2022-12-08T01:54:58.345Z,99655.78
2022-12-08T01:55:33.361Z,99656.50
2022-12-08T01:56:20.561Z,99657.97
2022-12-08T01:57:07.223Z,99660.91
2022-12-08T01:57:53.006Z,99658.87
2022-12-08T01:58:48.058Z,99660.91
2022-12-08T01:59:20.244Z,99655.22
2022-12-08T02:00:02.874Z,99660.63
2022-12-08T02:00:38.489Z,99664.75
2022-12-08T02:01:11.334Z,99654.97
2022-12-08T02:01:43.410Z,99656.03
2022-12-08T02:02:15.860Z,99655.22
2022-12-08T02:03:07.097Z,99664.88
2022-12-08T02:03:42.208Z,99658.06
2022-12-08T02:04:14.042Z,99659.47
2022-12-08T02:04:45.902Z,99664.34
2022-12-08T02:05:20.087Z,99662.97
2022-12-08T02:05:52.700Z,99661.44
2022-12-08T02:06:27.710Z,99664.28
2022-12-08T02:07:04.898Z,99666.13
2022-12-08T02:07:39.968Z,99660.06
2022-12-08T02:08:13.579Z,99661.00
2022-12-08T02:08:46.037Z,99662.00
2022-12-08T02:09:19.625Z,99655.19
2022-12-08T02:09:53.846Z,99660.34
2022-12-08T02:10:29.524Z,99661.06
2022-12-08T02:11:01.650Z,99665.22
2022-12-08T02:11:33.752Z,99659.81
2022-12-08T02:12:05.897Z,99661.44
2022-12-08T02:12:37.743Z,99661.66
2022-12-08T02:13:13.236Z,99660.47
2022-12-08T02:13:47.471Z,99661.59
2022-12-08T02:14:19.359Z,99660.41
2022-12-08T02:14:51.329Z,99656.75
2022-12-08T02:15:34.074Z,99655.75
2022-12-08T02:16:45.533Z,99658.28
2022-12-08T02:17:27.567Z,99659.72
2022-12-08T02:18:17.894Z,99655.78
2022-12-08T02:19:30.334Z,99650.22
2022-12-08T02:20:23.894Z,99659.06
2022-12-08T02:21:09.285Z,99659.03
2022-12-08T02:21:52.989Z,99660.97
2022-12-08T02:22:58.646Z,99656.00
2022-12-08T02:23:59.354Z,99660.78
2022-12-08T02:25:03.421Z,99655.69
2022-12-08T02:25:35.227Z,99656.00
2022-12-08T02:26:39.346Z,99660.16
2022-12-08T02:27:20.138Z,99661.16
2022-12-08T02:28:22.314Z,99649.03
2022-12-08T02:29:17.110Z,99655.12
2022-12-08T02:30:04.826Z,99660.88
2022-12-08T02:30:59.937Z,99651.56
2022-12-08T02:31:43.895Z,99652.22
2022-12-08T02:32:24.443Z,99651.16
2022-12-08T02:32:59.370Z,99647.22
2022-12-08T02:33:50.115Z,99648.94
2022-12-08T02:34:24.747Z,99651.97
2022-12-08T02:35:05.495Z,99651.63
2022-12-08T02:36:15.827Z,99643.63
2022-12-08T02:37:06.767Z,99653.47
2022-12-08T02:37:50.234Z,99644.34
2022-12-08T02:38:28.453Z,99636.28
2022-12-08T02:39:23.389Z,99642.13
2022-12-08T02:40:33.191Z,99638.78
2022-12-08T02:41:36.408Z,99646.59
2022-12-08T02:42:30.314Z,99643.91
2022-12-08T02:43:16.954Z,99640.69
2022-12-08T02:43:59.961Z,99633.13
2022-12-08T02:44:35.645Z,99638.75
2022-12-08T02:45:15.361Z,99647.66
2022-12-08T02:46:00.209Z,99638.25
2022-12-08T02:46:45.239Z,99642.53
2022-12-08T02:47:20.408Z,99636.28
2022-12-08T02:47:52.681Z,99631.44
2022-12-08T02:48:28.462Z,99633.41
2022-12-08T02:49:02.244Z,99640.66
2022-12-08T02:49:35.565Z,99634.69
2022-12-08T02:50:08.305Z,99631.97
2022-12-08T02:50:40.149Z,99634.47
2022-12-08T02:51:12.002Z,99633.94
2022-12-08T02:51:43.828Z,99633.78
2022-12-08T02:52:15.649Z,99629.44
2022-12-08T02:52:48.764Z,99628.72
2022-12-08T02:53:20.646Z,99627.63
2022-12-08T02:53:52.793Z,99625.78
2022-12-08T02:54:25.090Z,99636.16
2022-12-08T02:54:58.730Z,99627.34
2022-12-08T02:55:56.509Z,99626.69
2022-12-08T02:56:36.835Z,99630.06
2022-12-08T02:57:11.503Z,99626.00
2022-12-08T02:57:45.969Z,99632.25
2022-12-08T02:58:39.330Z,99633.84
2022-12-08T02:59:46.147Z,99625.25
2022-12-08T03:00:23.568Z,99629.81
2022-12-08T03:01:01.628Z,99622.28
2022-12-08T03:02:03.381Z,99627.78
2022-12-08T03:02:53.915Z,99623.16
2022-12-08T03:04:10.383Z,99620.69
2022-12-08T03:05:03.290Z,99622.66
2022-12-08T03:05:55.386Z,99614.34
2022-12-08T03:06:47.541Z,99615.69
2022-12-08T03:07:19.369Z,99611.28
2022-12-08T03:08:04.449Z,99617.34
2022-12-08T03:08:49.865Z,99609.28
2022-12-08T03:09:24.459Z,99610.75
2022-12-08T03:10:03.552Z,99618.69
2022-12-08T03:10:46.515Z,99608.41
2022-12-08T03:11:24.821Z,99606.88
2022-12-08T03:12:03.439Z,99613.09
2022-12-08T03:12:41.713Z,99606.69
2022-12-08T03:13:20.453Z,99609.03
2022-12-08T03:13:56.230Z,99604.53
2022-12-08T03:14:30.438Z,99609.53
2022-12-08T03:15:09.547Z,99607.25
2022-12-08T03:15:45.472Z,99610.00
2022-12-08T03:16:22.708Z,99603.88
2022-12-08T03:16:57.945Z,99606.50
2022-12-08T03:17:31.740Z,99607.84
2022-12-08T03:18:06.533Z,99609.75
2022-12-08T03:18:44.207Z,99607.06
2022-12-08T03:19:26.631Z,99608.03
2022-12-08T03:20:04.816Z,99605.16
2022-12-08T03:20:38.488Z,99604.97
2022-12-08T03:21:12.112Z,99610.31
2022-12-08T03:21:46.333Z,99610.25
2022-12-08T03:22:27.595Z,99608.84
2022-12-08T03:23:02.270Z,99605.72
2022-12-08T03:23:38.157Z,99604.75
2022-12-08T03:24:11.270Z,99600.16
2022-12-08T03:24:45.907Z,99606.38
2022-12-08T03:25:21.379Z,99608.41
2022-12-08T03:26:18.569Z,99599.97
2022-12-08T03:26:56.948Z,99608.03
2022-12-08T03:27:31.626Z,99608.12
2022-12-08T03:28:03.597Z,99602.41
2022-12-08T03:28:35.518Z,99601.44
2022-12-08T03:29:08.164Z,99609.44
2022-12-08T03:29:40.532Z,99607.53
2022-12-08T03:30:12.810Z,99603.16
2022-12-08T03:30:48.244Z,99606.28
2022-12-08T03:31:23.901Z,99604.69
2022-12-08T03:32:09.117Z,99612.25
2022-12-08T03:32:55.372Z,99608.47
2022-12-08T03:33:32.971Z,99609.50
2022-12-08T03:34:05.730Z,99607.25
2022-12-08T03:34:40.469Z,99603.81
2022-12-08T03:35:15.914Z,99601.97
2022-12-08T03:35:48.066Z,99599.25
2022-12-08T03:36:20.960Z,99608.28
2022-12-08T03:36:52.778Z,99603.44
2022-12-08T03:37:27.153Z,99611.34
2022-12-08T03:38:08.132Z,99604.59
2022-12-08T03:38:43.397Z,99609.03
2022-12-08T03:39:15.258Z,99606.75
2022-12-08T03:39:47.551Z,99611.87
2022-12-08T03:40:20.645Z,99611.78
2022-12-08T03:41:11.201Z,99610.63
2022-12-08T03:41:43.109Z,99612.63
2022-12-08T03:42:14.964Z,99613.72
2022-12-08T03:42:47.196Z,99606.00
2022-12-08T03:43:19.019Z,99610.25
2022-12-08T03:43:53.357Z,99606.81
2022-12-08T03:44:25.197Z,99610.97
2022-12-08T03:44:57.076Z,99612.75
2022-12-08T03:45:29.078Z,99620.03
2022-12-08T03:46:01.023Z,99612.97
2022-12-08T03:46:32.911Z,99608.50
2022-12-08T03:47:04.997Z,99614.59
2022-12-08T03:47:37.533Z,99612.37
2022-12-08T03:48:09.681Z,99608.03
2022-12-08T03:48:41.603Z,99614.94
2022-12-08T03:49:13.435Z,99611.87
2022-12-08T03:49:45.238Z,99610.03
2022-12-08T03:50:17.095Z,99615.69
2022-12-08T03:50:48.881Z,99614.44
2022-12-08T03:51:22.174Z,99610.16
2022-12-08T03:51:53.979Z,99618.25
2022-12-08T03:52:25.809Z,99612.44
2022-12-08T03:52:57.665Z,99614.00
2022-12-08T03:53:29.825Z,99617.88
2022-12-08T03:54:01.674Z,99619.56
2022-12-08T03:54:33.560Z,99619.34
2022-12-08T03:55:05.845Z,99613.03
2022-12-08T03:55:37.730Z,99616.84
2022-12-08T03:56:15.788Z,99620.59
2022-12-08T03:56:47.724Z,99618.13
2022-12-08T03:57:19.627Z,99610.41
2022-12-08T03:57:51.434Z,99623.62
2022-12-08T03:58:23.269Z,99613.53
2022-12-08T03:58:56.007Z,99613.63
2022-12-08T03:59:27.825Z,99606.72
2022-12-08T03:59:59.649Z,99607.38
2022-12-08T04:00:31.491Z,99610.00
2022-12-08T04:01:03.652Z,99615.62
2022-12-08T04:01:35.598Z,99613.81
2022-12-08T04:02:07.543Z,99611.09
2022-12-08T04:02:39.592Z,99613.53
2022-12-08T04:03:11.561Z,99611.59
2022-12-08T04:03:43.742Z,99623.53
2022-12-08T04:04:15.626Z,99614.25
2022-12-08T04:04:47.717Z,99613.22
2022-12-08T04:05:19.558Z,99614.84
2022-12-08T04:05:51.396Z,99615.84
2022-12-08T04:06:24.378Z,99610.78
2022-12-08T04:06:56.225Z,99609.97
2022-12-08T04:07:28.092Z,99609.50
2022-12-08T04:08:01.195Z,99609.81
2022-12-08T04:08:33.173Z,99610.16
2022-12-08T04:09:05.094Z,99605.09
2022-12-08T04:09:36.962Z,99609.19
2022-12-08T04:10:09.394Z,99608.91
2022-12-08T04:10:41.258Z,99606.38
2022-12-08T04:11:13.213Z,99613.37
2022-12-08T04:11:45.485Z,99609.03
2022-12-08T04:12:17.459Z,99610.13
2022-12-08T04:12:49.428Z,99607.44
2022-12-08T04:13:21.601Z,99606.97
2022-12-08T04:13:53.452Z,99605.88
2022-12-08T04:14:25.328Z,99602.34
2022-12-08T04:14:57.135Z,99605.13
2022-12-08T04:15:28.956Z,99601.75
2022-12-08T04:16:00.959Z,99604.56
2022-12-08T04:16:32.978Z,99604.81
2022-12-08T04:17:05.231Z,99608.56
2022-12-08T04:17:37.092Z,99598.66
2022-12-08T04:18:08.906Z,99602.25
2022-12-08T04:18:40.717Z,99603.53
2022-12-08T04:19:12.509Z,99602.59
2022-12-08T04:19:44.309Z,99600.97
2022-12-08T04:20:16.103Z,99605.81
2022-12-08T04:20:47.956Z,99606.28
2022-12-08T04:21:20.077Z,99597.31
2022-12-08T04:21:51.933Z,99598.59
2022-12-08T04:22:24.121Z,99602.16
2022-12-08T04:22:56.071Z,99597.25
2022-12-08T04:23:28.282Z,99598.06
2022-12-08T04:24:01.447Z,99606.28
2022-12-08T04:24:33.531Z,99595.94
2022-12-08T04:25:06.039Z,99607.25
2022-12-08T04:25:38.144Z,99600.19
2022-12-08T04:26:10.490Z,99595.06
2022-12-08T04:26:42.347Z,99598.41
2022-12-08T04:27:14.210Z,99589.66
2022-12-08T04:27:46.327Z,99591.66
2022-12-08T04:28:18.207Z,99592.66
2022-12-08T04:28:49.993Z,99587.53
2022-12-08T04:29:21.932Z,99587.88
2022-12-08T04:29:53.768Z,99590.69
2022-12-08T04:30:25.577Z,99586.88
2022-12-08T04:30:57.790Z,99588.81
2022-12-08T04:31:29.748Z,99582.87
2022-12-08T04:32:01.695Z,99585.53
2022-12-08T04:32:33.538Z,99593.06
2022-12-08T04:33:06.106Z,99599.31
2022-12-08T04:33:38.498Z,99584.06
2022-12-08T04:34:10.439Z,99591.28
2022-12-08T04:34:42.276Z,99584.53
2022-12-08T04:35:14.182Z,99591.28
2022-12-08T04:35:46.022Z,99588.31
2022-12-08T04:36:17.838Z,99591.09
2022-12-08T04:36:49.682Z,99592.72
2022-12-08T04:37:21.501Z,99587.47
2022-12-08T04:37:53.378Z,99592.53
2022-12-08T04:38:25.571Z,99590.41
2022-12-08T04:38:58.136Z,99588.69
2022-12-08T04:39:29.984Z,99592.72
2022-12-08T04:40:02.152Z,99589.03
2022-12-08T04:40:34.261Z,99589.34
2022-12-08T04:41:06.339Z,99593.69
2022-12-08T04:41:38.178Z,99590.13
2022-12-08T04:42:10.041Z,99590.50
2022-12-08T04:42:42.870Z,99587.97
2022-12-08T04:43:14.721Z,99589.59
2022-12-08T04:43:46.892Z,99592.16
2022-12-08T04:44:18.915Z,99585.06
2022-12-08T04:44:50.712Z,99592.44
2022-12-08T04:45:22.671Z,99591.81
2022-12-08T04:45:54.505Z,99594.97
2022-12-08T04:46:26.424Z,99595.28
2022-12-08T04:46:58.436Z,99594.22
2022-12-08T04:47:30.296Z,99585.19
2022-12-08T04:48:02.894Z,99594.81
2022-12-08T04:48:36.958Z,99593.84
2022-12-08T04:49:09.101Z,99598.69
2022-12-08T04:49:40.963Z,99586.88
2022-12-08T04:50:13.270Z,99586.59
2022-12-08T04:50:46.004Z,99589.53
2022-12-08T04:51:20.042Z,99589.87
2022-12-08T04:51:51.868Z,99583.00
2022-12-08T04:52:23.731Z,99583.09
2022-12-08T04:52:55.613Z,99584.56
2022-12-08T04:53:27.490Z,99583.41
2022-12-08T04:53:59.404Z,99580.47
2022-12-08T04:54:31.629Z,99581.47
2022-12-08T04:55:04.200Z,99577.16
2022-12-08T04:55:43.795Z,99583.78
2022-12-08T04:56:17.793Z,99583.47
2022-12-08T04:56:49.604Z,99581.56
2022-12-08T04:57:21.528Z,99576.78
2022-12-08T04:57:53.355Z,99576.63
2022-12-08T04:58:25.225Z,99577.59
2022-12-08T04:58:57.031Z,99574.56
2022-12-08T04:59:28.897Z,99575.91
2022-12-08T05:00:01.191Z,99573.78
2022-12-08T05:00:33.627Z,99575.22
2022-12-08T05:01:05.803Z,99571.97
2022-12-08T05:01:37.786Z,99580.34
2022-12-08T05:02:09.992Z,99581.28
2022-12-08T05:02:42.048Z,99577.19
2022-12-08T05:03:15.068Z,99577.59
2022-12-08T05:03:46.918Z,99577.25
2022-12-08T05:04:18.748Z,99583.16
2022-12-08T05:04:50.583Z,99578.47
2022-12-08T05:05:22.862Z,99576.91
2022-12-08T05:05:54.771Z,99586.00
2022-12-08T05:06:26.659Z,99584.84
2022-12-08T05:06:58.572Z,99584.44
2022-12-08T05:07:30.447Z,99581.56
2022-12-08T05:08:02.598Z,99580.81
2022-12-08T05:08:34.621Z,99581.94
2022-12-08T05:09:06.523Z,99587.00
2022-12-08T05:09:38.436Z,99587.13
2022-12-08T05:10:10.371Z,99588.91
2022-12-08T05:10:42.503Z,99582.44
2022-12-08T05:11:14.396Z,99587.59
2022-12-08T05:11:49.088Z,99591.78
2022-12-08T05:12:21.246Z,99594.38
2022-12-08T05:12:53.230Z,99592.72
2022-12-08T05:13:25.060Z,99592.41
2022-12-08T05:13:56.870Z,99584.84
2022-12-08T05:14:28.703Z,99591.41
2022-12-08T05:15:00.536Z,99589.59
2022-12-08T05:15:32.404Z,99591.94
2022-12-08T05:16:10.816Z,99583.28
2022-12-08T05:16:43.349Z,99592.22
2022-12-08T05:17:16.883Z,99585.50
2022-12-08T05:17:48.733Z,99583.94
2022-12-08T05:18:20.547Z,99590.72
2022-12-08T05:18:52.380Z,99586.19
2022-12-08T05:19:24.438Z,99584.88
2022-12-08T05:19:56.303Z,99581.97
2022-12-08T05:20:28.346Z,99586.53
2022-12-08T05:21:00.334Z,99585.88
2022-12-08T05:21:32.502Z,99590.72
2022-12-08T05:22:04.353Z,99592.22
2022-12-08T05:22:39.276Z,99592.81
2022-12-08T05:23:14.285Z,99588.31
2022-12-08T05:24:02.599Z,99590.41
2022-12-08T05:24:34.914Z,99587.06
2022-12-08T05:25:06.997Z,99585.66
2022-12-08T05:25:38.824Z,99595.63
2022-12-08T05:26:10.687Z,99597.41
2022-12-08T05:26:42.935Z,99594.97
2022-12-08T05:27:15.386Z,99595.31
2022-12-08T05:27:47.216Z,99591.63
2022-12-08T05:28:44.445Z,99593.72
2022-12-08T05:29:17.384Z,99592.06
2022-12-08T05:29:50.397Z,99592.25
2022-12-08T05:30:23.401Z,99591.53
2022-12-08T05:30:55.262Z,99589.87
2022-12-08T05:31:27.289Z,99593.28
2022-12-08T05:31:59.477Z,99595.50
2022-12-08T05:32:31.380Z,99591.75
2022-12-08T05:33:07.584Z,99594.97
2022-12-08T05:33:43.776Z,99591.50
2022-12-08T05:34:15.646Z,99592.13
2022-12-08T05:34:47.480Z,99595.84
2022-12-08T05:35:19.321Z,99592.72
2022-12-08T05:35:51.144Z,99589.03
2022-12-08T05:36:23.058Z,99598.25
2022-12-08T05:36:55.505Z,99594.38
2022-12-08T05:37:27.660Z,99591.16
2022-12-08T05:37:59.490Z,99597.84
2022-12-08T05:38:31.315Z,99599.44
2022-12-08T05:39:03.568Z,99596.66
2022-12-08T05:39:35.507Z,99592.50
2022-12-08T05:40:08.192Z,99593.03
2022-12-08T05:40:41.631Z,99591.41
2022-12-08T05:41:19.730Z,99594.12
2022-12-08T05:41:51.593Z,99595.25
2022-12-08T05:42:25.105Z,99587.22
2022-12-08T05:42:57.421Z,99588.22
2022-12-08T05:43:29.387Z,99586.44
2022-12-08T05:44:01.247Z,99583.06
2022-12-08T05:44:33.153Z,99588.69
2022-12-08T05:45:05.609Z,99590.00
2022-12-08T05:45:37.594Z,99590.13
2022-12-08T05:46:09.642Z,99581.44
2022-12-08T05:46:41.669Z,99588.03
2022-12-08T05:47:13.465Z,99585.31
2022-12-08T05:47:45.306Z,99589.34
2022-12-08T05:48:17.469Z,99588.87
2022-12-08T05:48:49.301Z,99586.22
2022-12-08T05:49:21.142Z,99590.91
2022-12-08T05:49:53.339Z,99587.59
2022-12-08T05:50:25.179Z,99589.69
2022-12-08T05:51:00.982Z,99581.63
2022-12-08T05:51:33.189Z,99589.00
2022-12-08T05:52:05.202Z,99585.91
2022-12-08T05:52:37.050Z,99582.31
2022-12-08T05:53:08.864Z,99585.06
2022-12-08T05:53:41.032Z,99580.59
2022-12-08T05:54:14.180Z,99579.28
2022-12-08T05:54:46.065Z,99576.69
2022-12-08T05:55:17.881Z,99575.19
2022-12-08T05:55:49.764Z,99578.19
2022-12-08T05:56:22.183Z,99573.22
2022-12-08T05:56:54.040Z,99571.12
2022-12-08T05:57:25.866Z,99569.56
2022-12-08T05:57:57.727Z,99568.63
2022-12-08T05:58:30.006Z,99572.50
2022-12-08T05:59:04.933Z,99569.13
2022-12-08T05:59:37.616Z,99568.63
2022-12-08T06:00:10.718Z,99570.25
2022-12-08T06:00:44.881Z,99574.44
2022-12-08T06:01:30.407Z,99576.69
2022-12-08T06:02:02.447Z,99573.78
2022-12-08T06:02:35.647Z,99573.78
2022-12-08T06:03:08.069Z,99571.22
2022-12-08T06:03:39.930Z,99568.00
2022-12-08T06:04:11.732Z,99572.84
2022-12-08T06:04:43.566Z,99574.13
2022-12-08T06:05:15.735Z,99569.16
2022-12-08T06:05:47.955Z,99567.34
2022-12-08T06:06:20.547Z,99569.44
2022-12-08T06:06:52.451Z,99566.16
2022-12-08T06:07:24.236Z,99573.00
2022-12-08T06:07:56.174Z,99570.09
2022-12-08T06:08:28.192Z,99573.50
2022-12-08T06:09:00.166Z,99575.13
2022-12-08T06:09:32.046Z,99575.31
2022-12-08T06:10:05.085Z,99574.69
2022-12-08T06:10:41.597Z,99576.16
2022-12-08T06:11:23.603Z,99571.81
2022-12-08T06:11:55.761Z,99575.84
2022-12-08T06:12:27.595Z,99582.94
2022-12-08T06:12:59.678Z,99587.59
2022-12-08T06:13:31.493Z,99588.56
2022-12-08T06:14:03.502Z,99587.75
2022-12-08T06:14:35.419Z,99586.00
2022-12-08T06:15:08.098Z,99585.69
2022-12-08T06:15:41.070Z,99587.78
2022-12-08T06:16:13.025Z,99589.41
2022-12-08T06:16:44.915Z,99584.09
2022-12-08T06:17:17.054Z,99587.59
2022-12-08T06:17:48.946Z,99585.66
2022-12-08T06:18:20.792Z,99584.06
2022-12-08T06:18:52.768Z,99584.84
2022-12-08T06:19:24.618Z,99585.19
2022-12-08T06:19:56.512Z,99593.06
2022-12-08T06:20:29.159Z,99587.91
2022-12-08T06:21:09.080Z,99593.06
2022-12-08T06:21:40.992Z,99592.75
2022-12-08T06:22:12.860Z,99600.00
2022-12-08T06:22:45.038Z,99593.72
2022-12-08T06:23:16.862Z,99595.66
2022-12-08T06:23:53.234Z,99594.19
2022-12-08T06:24:25.206Z,99596.63
2022-12-08T06:24:57.267Z,99595.31
2022-12-08T06:25:29.154Z,99596.53
2022-12-08T06:26:02.945Z,99593.56
2022-12-08T06:26:36.118Z,99590.94
2022-12-08T06:27:07.990Z,99595.09
2022-12-08T06:27:39.861Z,99589.72
2022-12-08T06:28:11.998Z,99590.75
2022-12-08T06:28:44.161Z,99599.97
2022-12-08T06:29:15.992Z,99588.41
2022-12-08T06:29:47.801Z,99589.22
2022-12-08T06:30:19.737Z,99593.44
2022-12-08T06:30:51.593Z,99590.81
2022-12-08T06:31:25.684Z,99593.88
2022-12-08T06:31:57.699Z,99595.84
2022-12-08T06:32:29.737Z,99590.72
2022-12-08T06:33:01.595Z,99595.84
2022-12-08T06:33:33.773Z,99592.34
2022-12-08T06:34:06.191Z,99596.16
2022-12-08T06:34:38.029Z,99602.91
2022-12-08T06:35:09.921Z,99595.06
2022-12-08T06:35:41.731Z,99592.34
2022-12-08T06:36:15.220Z,99600.56
2022-12-08T06:36:47.039Z,99595.34
2022-12-08T06:37:19.412Z,99594.63
2022-12-08T06:37:51.816Z,99597.47
2022-12-08T06:38:23.722Z,99603.50
2022-12-08T06:38:56.434Z,99603.53
2022-12-08T06:39:28.304Z,99604.66
2022-12-08T06:40:00.157Z,99597.53
2022-12-08T06:40:32.017Z,99603.59
2022-12-08T06:41:05.772Z,99599.59
2022-12-08T06:41:57.617Z,99592.47
2022-12-08T06:42:44.776Z,99602.06
2022-12-08T06:43:16.584Z,99594.44
2022-12-08T06:43:48.424Z,99596.59
2022-12-08T06:44:20.521Z,99596.28
2022-12-08T06:44:52.621Z,99599.03
2022-12-08T06:45:24.538Z,99604.50
2022-12-08T06:45:56.429Z,99605.31
2022-12-08T06:46:28.434Z,99610.13
2022-12-08T06:47:00.273Z,99605.16
2022-12-08T06:47:32.093Z,99600.28
2022-12-08T06:48:04.084Z,99603.19
2022-12-08T06:48:36.305Z,99604.50